Albin, Mississippi
Current Conditions -  °F | °C
As of 8:15 PM on Friday 19 Dec 2014 (Local Time) from KCKM Reporting Station
Overcast Overcast  
Wind Chill:   Ceiling: 3800
Heat Index:   Visibility: 8mi
Dew Point:   Wind: 7mph
Humidity: 87%   Direction: 40°NE
Pressure: 30.24"   Gusts: NA
Location:  33.9477°N, 90.3476°W
Report Text: KCKM 200215Z AUTO 04006KT 8SM OVC038 06/04 A3024 RMK AO1
Loading
Personal Weather Stations






























Interactive Weather Map New forecast layout! Learn more

10-Day Weather Forecast

Advertisements
Track Severe Weather on mobile